sensor_id;sensor_type;location;lat;lon;timestamp;temperature;humidity
70166;SHT30;57541;47.408;18.822;2023-07-08T00:00:17;16.60;92.57
70166;SHT30;57541;47.408;18.822;2023-07-08T00:00:50;16.69;92.41
70166;SHT30;57541;47.408;18.822;2023-07-08T00:01:22;16.70;92.43
70166;SHT30;57541;47.408;18.822;2023-07-08T00:01:54;16.68;92.65
70166;SHT30;57541;47.408;18.822;2023-07-08T00:02:26;16.66;92.65
70166;SHT30;57541;47.408;18.822;2023-07-08T00:02:58;16.68;92.50
70166;SHT30;57541;47.408;18.822;2023-07-08T00:03:29;16.59;92.55
70166;SHT30;57541;47.408;18.822;2023-07-08T00:04:01;16.56;92.57
70166;SHT30;57541;47.408;18.822;2023-07-08T00:04:35;16.58;92.52
70166;SHT30;57541;47.408;18.822;2023-07-08T00:05:12;16.58;92.58
70166;SHT30;57541;47.408;18.822;2023-07-08T00:05:45;16.52;92.89
70166;SHT30;57541;47.408;18.822;2023-07-08T00:06:26;16.48;93.00
70166;SHT30;57541;47.408;18.822;2023-07-08T00:06:58;16.42;93.21
70166;SHT30;57541;47.408;18.822;2023-07-08T00:07:30;16.41;93.19
70166;SHT30;57541;47.408;18.822;2023-07-08T00:08:02;16.38;93.31
70166;SHT30;57541;47.408;18.822;2023-07-08T00:08:34;16.42;93.18
70166;SHT30;57541;47.408;18.822;2023-07-08T00:09:12;16.44;93.28
70166;SHT30;57541;47.408;18.822;2023-07-08T00:09:44;16.35;93.61
70166;SHT30;57541;47.408;18.822;2023-07-08T00:10:22;16.39;93.43
70166;SHT30;57541;47.408;18.822;2023-07-08T00:10:55;16.44;93.44
70166;SHT30;57541;47.408;18.822;2023-07-08T00:11:28;16.49;93.17
70166;SHT30;57541;47.408;18.822;2023-07-08T00:12:00;16.53;93.02
70166;SHT30;57541;47.408;18.822;2023-07-08T00:12:31;16.55;92.86
70166;SHT30;57541;47.408;18.822;2023-07-08T00:13:03;16.56;93.14
70166;SHT30;57541;47.408;18.822;2023-07-08T00:13:35;16.52;93.00
70166;SHT30;57541;47.408;18.822;2023-07-08T00:14:06;16.49;93.09
70166;SHT30;57541;47.408;18.822;2023-07-08T00:14:38;16.49;93.17
70166;SHT30;57541;47.408;18.822;2023-07-08T00:15:11;16.48;93.09
70166;SHT30;57541;47.408;18.822;2023-07-08T00:15:43;16.48;93.03
70166;SHT30;57541;47.408;18.822;2023-07-08T00:16:16;16.48;92.90
70166;SHT30;57541;47.408;18.822;2023-07-08T00:16:51;16.45;92.86
70166;SHT30;57541;47.408;18.822;2023-07-08T00:17:23;16.39;93.04
70166;SHT30;57541;47.408;18.822;2023-07-08T00:17:54;16.28;93.72
70166;SHT30;57541;47.408;18.822;2023-07-08T00:18:26;16.21;94.75
70166;SHT30;57541;47.408;18.822;2023-07-08T00:18:58;16.29;94.11
70166;SHT30;57541;47.408;18.822;2023-07-08T00:19:29;16.31;93.53
70166;SHT30;57541;47.408;18.822;2023-07-08T00:20:04;16.29;93.29
70166;SHT30;57541;47.408;18.822;2023-07-08T00:20:48;16.22;93.66
70166;SHT30;57541;47.408;18.822;2023-07-08T00:21:20;16.17;94.08
70166;SHT30;57541;47.408;18.822;2023-07-08T00:21:51;16.21;93.59
70166;SHT30;57541;47.408;18.822;2023-07-08T00:22:23;16.14;93.97
70166;SHT30;57541;47.408;18.822;2023-07-08T00:22:56;16.18;93.84
70166;SHT30;57541;47.408;18.822;2023-07-08T00:23:28;16.18;93.76
70166;SHT30;57541;47.408;18.822;2023-07-08T00:24:00;16.17;93.88
70166;SHT30;57541;47.408;18.822;2023-07-08T00:24:31;16.24;93.67
70166;SHT30;57541;47.408;18.822;2023-07-08T00:25:03;16.31;93.70
70166;SHT30;57541;47.408;18.822;2023-07-08T00:25:35;16.25;93.37
70166;SHT30;57541;47.408;18.822;2023-07-08T00:26:10;16.21;93.38
70166;SHT30;57541;47.408;18.822;2023-07-08T00:26:44;16.24;93.61
70166;SHT30;57541;47.408;18.822;2023-07-08T00:27:16;16.20;93.96
70166;SHT30;57541;47.408;18.822;2023-07-08T00:27:48;16.21;93.64
70166;SHT30;57541;47.408;18.822;2023-07-08T00:28:21;16.26;93.50
70166;SHT30;57541;47.408;18.822;2023-07-08T00:28:53;16.24;94.19
70166;SHT30;57541;47.408;18.822;2023-07-08T00:29:25;16.22;93.85
70166;SHT30;57541;47.408;18.822;2023-07-08T00:29:57;16.12;93.89
70166;SHT30;57541;47.408;18.822;2023-07-08T00:30:30;16.18;93.93
70166;SHT30;57541;47.408;18.822;2023-07-08T00:31:02;16.20;93.64
70166;SHT30;57541;47.408;18.822;2023-07-08T00:31:34;16.17;93.99
70166;SHT30;57541;47.408;18.822;2023-07-08T00:32:11;16.12;94.54
70166;SHT30;57541;47.408;18.822;2023-07-08T00:32:44;16.05;94.25
70166;SHT30;57541;47.408;18.822;2023-07-08T00:33:15;16.05;94.24
70166;SHT30;57541;47.408;18.822;2023-07-08T00:33:48;16.10;94.16
70166;SHT30;57541;47.408;18.822;2023-07-08T00:34:20;16.07;94.07
70166;SHT30;57541;47.408;18.822;2023-07-08T00:34:52;16.10;94.18
70166;SHT30;57541;47.408;18.822;2023-07-08T00:35:42;16.00;94.09
70166;SHT30;57541;47.408;18.822;2023-07-08T00:36:14;16.04;94.16
70166;SHT30;57541;47.408;18.822;2023-07-08T00:36:46;16.07;93.96
70166;SHT30;57541;47.408;18.822;2023-07-08T00:37:18;15.96;94.18
70166;SHT30;57541;47.408;18.822;2023-07-08T00:37:51;15.94;94.22
70166;SHT30;57541;47.408;18.822;2023-07-08T00:38:26;15.93;94.53
70166;SHT30;57541;47.408;18.822;2023-07-08T00:38:58;15.97;94.49
70166;SHT30;57541;47.408;18.822;2023-07-08T00:39:33;15.94;94.62
70166;SHT30;57541;47.408;18.822;2023-07-08T00:40:16;15.79;95.15
70166;SHT30;57541;47.408;18.822;2023-07-08T00:41:04;15.90;95.08
70166;SHT30;57541;47.408;18.822;2023-07-08T00:41:39;15.96;95.00
70166;SHT30;57541;47.408;18.822;2023-07-08T00:42:24;15.93;94.38
70166;SHT30;57541;47.408;18.822;2023-07-08T00:42:56;15.89;94.57
70166;SHT30;57541;47.408;18.822;2023-07-08T00:44:12;15.94;94.48
70166;SHT30;57541;47.408;18.822;2023-07-08T00:44:44;15.94;94.72
70166;SHT30;57541;47.408;18.822;2023-07-08T00:45:27;15.98;94.34
70166;SHT30;57541;47.408;18.822;2023-07-08T00:46:12;15.93;94.08
70166;SHT30;57541;47.408;18.822;2023-07-08T00:46:58;15.96;94.37
70166;SHT30;57541;47.408;18.822;2023-07-08T00:47:33;15.93;94.84
70166;SHT30;57541;47.408;18.822;2023-07-08T00:48:19;15.97;94.96
70166;SHT30;57541;47.408;18.822;2023-07-08T00:49:53;15.83;94.83
70166;SHT30;57541;47.408;18.822;2023-07-08T00:50:27;15.84;94.67
70166;SHT30;57541;47.408;18.822;2023-07-08T00:50:58;15.90;94.70
70166;SHT30;57541;47.408;18.822;2023-07-08T00:51:30;15.79;94.52
70166;SHT30;57541;47.408;18.822;2023-07-08T00:52:24;15.74;95.43
70166;SHT30;57541;47.408;18.822;2023-07-08T00:53:36;15.71;94.90
70166;SHT30;57541;47.408;18.822;2023-07-08T00:54:11;15.61;95.14
70166;SHT30;57541;47.408;18.822;2023-07-08T00:54:43;15.69;94.99
70166;SHT30;57541;47.408;18.822;2023-07-08T00:55:15;15.70;94.87
70166;SHT30;57541;47.408;18.822;2023-07-08T00:55:46;15.66;94.66
70166;SHT30;57541;47.408;18.822;2023-07-08T00:56:26;15.70;94.44
70166;SHT30;57541;47.408;18.822;2023-07-08T00:57:01;15.60;94.86
70166;SHT30;57541;47.408;18.822;2023-07-08T00:57:37;15.59;94.86
70166;SHT30;57541;47.408;18.822;2023-07-08T00:58:11;15.61;95.03
70166;SHT30;57541;47.408;18.822;2023-07-08T00:58:48;15.52;95.06
70166;SHT30;57541;47.408;18.822;2023-07-08T00:59:36;15.49;95.40
70166;SHT30;57541;47.408;18.822;2023-07-08T01:00:13;15.46;95.25
70166;SHT30;57541;47.408;18.822;2023-07-08T01:00:47;15.46;95.48
70166;SHT30;57541;47.408;18.822;2023-07-08T01:01:21;15.44;95.19
70166;SHT30;57541;47.408;18.822;2023-07-08T01:01:54;15.47;95.37
70166;SHT30;57541;47.408;18.822;2023-07-08T01:02:27;15.47;95.44
70166;SHT30;57541;47.408;18.822;2023-07-08T01:02:59;15.52;95.27
70166;SHT30;57541;47.408;18.822;2023-07-08T01:03:38;15.49;95.00
70166;SHT30;57541;47.408;18.822;2023-07-08T01:04:17;15.47;95.03
70166;SHT30;57541;47.408;18.822;2023-07-08T01:04:57;15.49;94.97
70166;SHT30;57541;47.408;18.822;2023-07-08T01:05:30;15.53;94.97
70166;SHT30;57541;47.408;18.822;2023-07-08T01:06:03;15.54;94.87
70166;SHT30;57541;47.408;18.822;2023-07-08T01:06:39;15.54;94.86
70166;SHT30;57541;47.408;18.822;2023-07-08T01:07:12;15.57;95.17
70166;SHT30;57541;47.408;18.822;2023-07-08T01:07:45;15.56;94.90
70166;SHT30;57541;47.408;18.822;2023-07-08T01:08:18;15.52;94.96
70166;SHT30;57541;47.408;18.822;2023-07-08T01:08:50;15.53;95.05
70166;SHT30;57541;47.408;18.822;2023-07-08T01:09:30;15.56;95.25
70166;SHT30;57541;47.408;18.822;2023-07-08T01:10:06;15.50;95.03
70166;SHT30;57541;47.408;18.822;2023-07-08T01:10:49;15.50;95.26
70166;SHT30;57541;47.408;18.822;2023-07-08T01:11:23;15.56;95.27
70166;SHT30;57541;47.408;18.822;2023-07-08T01:11:58;15.56;94.97
70166;SHT30;57541;47.408;18.822;2023-07-08T01:12:37;15.59;94.87
70166;SHT30;57541;47.408;18.822;2023-07-08T01:13:10;15.61;94.76
70166;SHT30;57541;47.408;18.822;2023-07-08T01:13:44;15.60;94.87
70166;SHT30;57541;47.408;18.822;2023-07-08T01:14:19;15.63;95.08
70166;SHT30;57541;47.408;18.822;2023-07-08T01:14:52;15.63;94.88
70166;SHT30;57541;47.408;18.822;2023-07-08T01:15:31;15.66;94.79
70166;SHT30;57541;47.408;18.822;2023-07-08T01:16:05;15.64;94.95
70166;SHT30;57541;47.408;18.822;2023-07-08T01:16:38;15.56;95.01
70166;SHT30;57541;47.408;18.822;2023-07-08T01:17:11;15.61;95.28
70166;SHT30;57541;47.408;18.822;2023-07-08T01:17:46;15.57;95.24
70166;SHT30;57541;47.408;18.822;2023-07-08T01:18:19;15.47;95.38
70166;SHT30;57541;47.408;18.822;2023-07-08T01:18:52;15.49;95.31
70166;SHT30;57541;47.408;18.822;2023-07-08T01:19:25;15.47;95.52
70166;SHT30;57541;47.408;18.822;2023-07-08T01:20:05;15.47;95.54
70166;SHT30;57541;47.408;18.822;2023-07-08T01:20:45;15.47;95.57
70166;SHT30;57541;47.408;18.822;2023-07-08T01:21:37;15.47;95.80
70166;SHT30;57541;47.408;18.822;2023-07-08T01:22:10;15.35;95.80
70166;SHT30;57541;47.408;18.822;2023-07-08T01:22:43;15.40;95.78
70166;SHT30;57541;47.408;18.822;2023-07-08T01:23:16;15.39;95.78
70166;SHT30;57541;47.408;18.822;2023-07-08T01:23:48;15.38;95.71
70166;SHT30;57541;47.408;18.822;2023-07-08T01:24:20;15.35;95.67
70166;SHT30;57541;47.408;18.822;2023-07-08T01:24:51;15.19;95.91
70166;SHT30;57541;47.408;18.822;2023-07-08T01:25:23;15.13;95.91
70166;SHT30;57541;47.408;18.822;2023-07-08T01:25:55;15.16;95.53
70166;SHT30;57541;47.408;18.822;2023-07-08T01:26:29;15.06;95.98
70166;SHT30;57541;47.408;18.822;2023-07-08T01:27:04;15.11;96.00
70166;SHT30;57541;47.408;18.822;2023-07-08T01:27:40;15.03;96.22
70166;SHT30;57541;47.408;18.822;2023-07-08T01:28:12;14.82;96.75
70166;SHT30;57541;47.408;18.822;2023-07-08T01:28:45;14.89;96.57
70166;SHT30;57541;47.408;18.822;2023-07-08T01:29:17;14.92;96.17
70166;SHT30;57541;47.408;18.822;2023-07-08T01:29:49;14.99;95.86
70166;SHT30;57541;47.408;18.822;2023-07-08T01:30:21;14.96;95.73
70166;SHT30;57541;47.408;18.822;2023-07-08T01:30:53;14.88;96.11
70166;SHT30;57541;47.408;18.822;2023-07-08T01:31:25;14.82;96.46
70166;SHT30;57541;47.408;18.822;2023-07-08T01:31:58;14.80;96.42
70166;SHT30;57541;47.408;18.822;2023-07-08T01:32:36;14.88;96.14
70166;SHT30;57541;47.408;18.822;2023-07-08T01:33:16;14.89;96.20
70166;SHT30;57541;47.408;18.822;2023-07-08T01:33:50;14.88;95.88
70166;SHT30;57541;47.408;18.822;2023-07-08T01:34:23;14.84;96.05
70166;SHT30;57541;47.408;18.822;2023-07-08T01:34:58;14.81;96.20
70166;SHT30;57541;47.408;18.822;2023-07-08T01:35:33;14.89;96.31
70166;SHT30;57541;47.408;18.822;2023-07-08T01:36:09;14.87;96.30
70166;SHT30;57541;47.408;18.822;2023-07-08T01:36:47;14.84;96.30
70166;SHT30;57541;47.408;18.822;2023-07-08T01:37:20;14.75;96.62
70166;SHT30;57541;47.408;18.822;2023-07-08T01:37:59;14.84;96.36
70166;SHT30;57541;47.408;18.822;2023-07-08T01:38:31;14.81;96.53
70166;SHT30;57541;47.408;18.822;2023-07-08T01:39:03;14.71;96.88
70166;SHT30;57541;47.408;18.822;2023-07-08T01:39:35;14.71;96.92
70166;SHT30;57541;47.408;18.822;2023-07-08T01:40:34;14.64;97.59
70166;SHT30;57541;47.408;18.822;2023-07-08T01:41:11;14.70;97.43
70166;SHT30;57541;47.408;18.822;2023-07-08T01:41:44;14.70;97.32
70166;SHT30;57541;47.408;18.822;2023-07-08T01:42:16;14.73;96.96
70166;SHT30;57541;47.408;18.822;2023-07-08T01:42:47;14.68;96.92
70166;SHT30;57541;47.408;18.822;2023-07-08T01:43:19;14.73;96.80
70166;SHT30;57541;47.408;18.822;2023-07-08T01:43:51;14.74;96.84
70166;SHT30;57541;47.408;18.822;2023-07-08T01:44:31;14.75;96.83
70166;SHT30;57541;47.408;18.822;2023-07-08T01:45:11;14.78;97.03
70166;SHT30;57541;47.408;18.822;2023-07-08T01:45:43;14.82;96.87
70166;SHT30;57541;47.408;18.822;2023-07-08T01:46:22;14.74;96.70
70166;SHT30;57541;47.408;18.822;2023-07-08T01:46:58;14.74;96.87
70166;SHT30;57541;47.408;18.822;2023-07-08T01:47:31;14.65;97.11
70166;SHT30;57541;47.408;18.822;2023-07-08T01:48:05;14.56;97.35
70166;SHT30;57541;47.408;18.822;2023-07-08T01:48:40;14.63;97.08
70166;SHT30;57541;47.408;18.822;2023-07-08T01:49:13;14.65;97.04
70166;SHT30;57541;47.408;18.822;2023-07-08T01:49:46;14.56;97.41
70166;SHT30;57541;47.408;18.822;2023-07-08T01:50:19;14.61;96.99
70166;SHT30;57541;47.408;18.822;2023-07-08T01:50:58;14.57;96.70
70166;SHT30;57541;47.408;18.822;2023-07-08T01:51:31;14.60;96.80
70166;SHT30;57541;47.408;18.822;2023-07-08T01:52:03;14.61;96.58
70166;SHT30;57541;47.408;18.822;2023-07-08T01:52:35;14.60;96.52
70166;SHT30;57541;47.408;18.822;2023-07-08T01:53:20;14.51;96.91
70166;SHT30;57541;47.408;18.822;2023-07-08T01:53:53;14.54;96.65
70166;SHT30;57541;47.408;18.822;2023-07-08T01:54:24;14.50;96.76
70166;SHT30;57541;47.408;18.822;2023-07-08T01:54:56;14.54;96.79
70166;SHT30;57541;47.408;18.822;2023-07-08T01:55:28;14.48;96.89
70166;SHT30;57541;47.408;18.822;2023-07-08T01:56:00;14.48;97.13
70166;SHT30;57541;47.408;18.822;2023-07-08T01:56:32;14.50;97.08
70166;SHT30;57541;47.408;18.822;2023-07-08T01:57:04;14.48;97.08
70166;SHT30;57541;47.408;18.822;2023-07-08T01:57:35;14.48;97.34
70166;SHT30;57541;47.408;18.822;2023-07-08T01:58:07;14.51;97.21
70166;SHT30;57541;47.408;18.822;2023-07-08T01:58:39;14.50;97.29
70166;SHT30;57541;47.408;18.822;2023-07-08T01:59:11;14.51;97.19
70166;SHT30;57541;47.408;18.822;2023-07-08T01:59:43;14.47;97.23
70166;SHT30;57541;47.408;18.822;2023-07-08T02:00:15;14.50;97.10
70166;SHT30;57541;47.408;18.822;2023-07-08T02:00:46;14.50;97.22
70166;SHT30;57541;47.408;18.822;2023-07-08T02:01:20;14.53;97.17
70166;SHT30;57541;47.408;18.822;2023-07-08T02:01:52;14.54;96.99
70166;SHT30;57541;47.408;18.822;2023-07-08T02:02:26;14.40;97.10
70166;SHT30;57541;47.408;18.822;2023-07-08T02:02:58;14.45;97.16
70166;SHT30;57541;47.408;18.822;2023-07-08T02:03:30;14.45;96.98
70166;SHT30;57541;47.408;18.822;2023-07-08T02:04:02;14.43;96.92
70166;SHT30;57541;47.408;18.822;2023-07-08T02:04:33;14.40;96.86
70166;SHT30;57541;47.408;18.822;2023-07-08T02:05:05;14.36;96.90
70166;SHT30;57541;47.408;18.822;2023-07-08T02:05:37;14.34;96.86
70166;SHT30;57541;47.408;18.822;2023-07-08T02:06:09;14.34;96.81
70166;SHT30;57541;47.408;18.822;2023-07-08T02:06:41;14.36;96.85
70166;SHT30;57541;47.408;18.822;2023-07-08T02:07:13;14.30;96.84
70166;SHT30;57541;47.408;18.822;2023-07-08T02:07:45;14.33;97.00
70166;SHT30;57541;47.408;18.822;2023-07-08T02:08:17;14.34;97.12
70166;SHT30;57541;47.408;18.822;2023-07-08T02:08:49;14.26;97.32
70166;SHT30;57541;47.408;18.822;2023-07-08T02:09:23;14.27;97.24
70166;SHT30;57541;47.408;18.822;2023-07-08T02:09:56;14.05;97.79
70166;SHT30;57541;47.408;18.822;2023-07-08T02:10:28;14.17;97.93
70166;SHT30;57541;47.408;18.822;2023-07-08T02:10:59;14.22;97.58
70166;SHT30;57541;47.408;18.822;2023-07-08T02:11:32;14.23;97.69
70166;SHT30;57541;47.408;18.822;2023-07-08T02:12:04;14.17;97.83
70166;SHT30;57541;47.408;18.822;2023-07-08T02:12:35;14.12;97.87
70166;SHT30;57541;47.408;18.822;2023-07-08T02:13:07;14.12;98.03
70166;SHT30;57541;47.408;18.822;2023-07-08T02:13:39;14.10;98.36
70166;SHT30;57541;47.408;18.822;2023-07-08T02:14:11;14.12;98.45
70166;SHT30;57541;47.408;18.822;2023-07-08T02:14:43;14.13;98.43
70166;SHT30;57541;47.408;18.822;2023-07-08T02:15:14;14.16;98.25
70166;SHT30;57541;47.408;18.822;2023-07-08T02:15:46;14.22;98.27
70166;SHT30;57541;47.408;18.822;2023-07-08T02:16:19;14.16;98.26
70166;SHT30;57541;47.408;18.822;2023-07-08T02:16:50;14.09;98.53
70166;SHT30;57541;47.408;18.822;2023-07-08T02:17:22;14.19;98.32
70166;SHT30;57541;47.408;18.822;2023-07-08T02:17:54;14.16;98.32
70166;SHT30;57541;47.408;18.822;2023-07-08T02:18:25;14.20;98.32
70166;SHT30;57541;47.408;18.822;2023-07-08T02:18:57;14.24;98.31
70166;SHT30;57541;47.408;18.822;2023-07-08T02:19:29;14.24;98.48
70166;SHT30;57541;47.408;18.822;2023-07-08T02:20:01;14.22;98.57
70166;SHT30;57541;47.408;18.822;2023-07-08T02:20:32;14.23;98.45
70166;SHT30;57541;47.408;18.822;2023-07-08T02:21:04;14.22;98.50
70166;SHT30;57541;47.408;18.822;2023-07-08T02:21:37;14.23;98.62
70166;SHT30;57541;47.408;18.822;2023-07-08T02:22:10;14.24;98.48
70166;SHT30;57541;47.408;18.822;2023-07-08T02:22:41;14.27;98.47
70166;SHT30;57541;47.408;18.822;2023-07-08T02:23:14;14.22;98.74
70166;SHT30;57541;47.408;18.822;2023-07-08T02:23:49;14.32;98.28
70166;SHT30;57541;47.408;18.822;2023-07-08T02:24:22;14.23;98.20
70166;SHT30;57541;47.408;18.822;2023-07-08T02:24:54;14.30;98.05
70166;SHT30;57541;47.408;18.822;2023-07-08T02:25:26;14.32;97.74
70166;SHT30;57541;47.408;18.822;2023-07-08T02:25:57;14.24;97.81
70166;SHT30;57541;47.408;18.822;2023-07-08T02:26:29;14.17;97.91
70166;SHT30;57541;47.408;18.822;2023-07-08T02:27:03;14.16;98.28
70166;SHT30;57541;47.408;18.822;2023-07-08T02:27:37;14.13;98.27
70166;SHT30;57541;47.408;18.822;2023-07-08T02:28:09;14.17;98.32
70166;SHT30;57541;47.408;18.822;2023-07-08T02:28:40;14.06;98.53
70166;SHT30;57541;47.408;18.822;2023-07-08T02:29:12;14.08;98.57
70166;SHT30;57541;47.408;18.822;2023-07-08T02:29:44;14.12;98.90
70166;SHT30;57541;47.408;18.822;2023-07-08T02:30:15;14.13;98.84
70166;SHT30;57541;47.408;18.822;2023-07-08T02:30:47;14.19;98.73
70166;SHT30;57541;47.408;18.822;2023-07-08T02:31:19;14.17;98.76
70166;SHT30;57541;47.408;18.822;2023-07-08T02:31:51;14.15;98.93
70166;SHT30;57541;47.408;18.822;2023-07-08T02:32:22;14.22;98.90
70166;SHT30;57541;47.408;18.822;2023-07-08T02:32:54;14.22;98.84
70166;SHT30;57541;47.408;18.822;2023-07-08T02:33:29;14.16;98.91
70166;SHT30;57541;47.408;18.822;2023-07-08T02:34:04;14.08;99.05
70166;SHT30;57541;47.408;18.822;2023-07-08T02:34:37;14.01;99.29
70166;SHT30;57541;47.408;18.822;2023-07-08T02:35:09;14.09;99.25
70166;SHT30;57541;47.408;18.822;2023-07-08T02:35:40;14.10;99.09
70166;SHT30;57541;47.408;18.822;2023-07-08T02:36:12;14.15;98.83
70166;SHT30;57541;47.408;18.822;2023-07-08T02:36:43;14.15;98.48
70166;SHT30;57541;47.408;18.822;2023-07-08T02:37:15;14.15;98.16
70166;SHT30;57541;47.408;18.822;2023-07-08T02:37:47;14.06;98.19
70166;SHT30;57541;47.408;18.822;2023-07-08T02:38:18;13.99;98.58
70166;SHT30;57541;47.408;18.822;2023-07-08T02:38:50;13.93;98.60
70166;SHT30;57541;47.408;18.822;2023-07-08T02:39:22;13.98;98.80
70166;SHT30;57541;47.408;18.822;2023-07-08T02:39:54;13.87;98.93
70166;SHT30;57541;47.408;18.822;2023-07-08T02:40:26;13.96;98.81
70166;SHT30;57541;47.408;18.822;2023-07-08T02:40:58;13.87;98.95
70166;SHT30;57541;47.408;18.822;2023-07-08T02:41:30;13.95;98.96
70166;SHT30;57541;47.408;18.822;2023-07-08T02:42:02;13.96;98.77
70166;SHT30;57541;47.408;18.822;2023-07-08T02:42:33;13.96;98.89
70166;SHT30;57541;47.408;18.822;2023-07-08T02:43:05;13.99;98.91
70166;SHT30;57541;47.408;18.822;2023-07-08T02:43:40;13.98;98.94
70166;SHT30;57541;47.408;18.822;2023-07-08T02:44:11;14.03;99.13
70166;SHT30;57541;47.408;18.822;2023-07-08T02:44:43;14.02;99.06
70166;SHT30;57541;47.408;18.822;2023-07-08T02:45:16;14.03;99.15
70166;SHT30;57541;47.408;18.822;2023-07-08T02:45:49;14.03;99.28
70166;SHT30;57541;47.408;18.822;2023-07-08T02:46:22;14.02;99.38
70166;SHT30;57541;47.408;18.822;2023-07-08T02:46:53;14.02;99.26
70166;SHT30;57541;47.408;18.822;2023-07-08T02:47:25;14.03;99.36
70166;SHT30;57541;47.408;18.822;2023-07-08T02:47:57;14.02;99.44
70166;SHT30;57541;47.408;18.822;2023-07-08T02:48:29;13.87;99.97
70166;SHT30;57541;47.408;18.822;2023-07-08T02:49:01;13.83;99.99
70166;SHT30;57541;47.408;18.822;2023-07-08T02:49:32;13.72;99.99
70166;SHT30;57541;47.408;18.822;2023-07-08T02:50:06;13.76;99.99
70166;SHT30;57541;47.408;18.822;2023-07-08T02:50:38;13.76;99.99
70166;SHT30;57541;47.408;18.822;2023-07-08T02:51:10;13.76;99.99
70166;SHT30;57541;47.408;18.822;2023-07-08T02:51:41;13.79;99.99
70166;SHT30;57541;47.408;18.822;2023-07-08T02:52:13;13.83;99.99
70166;SHT30;57541;47.408;18.822;2023-07-08T02:52:45;13.76;99.99
70166;SHT30;57541;47.408;18.822;2023-07-08T02:53:16;13.81;99.99
70166;SHT30;57541;47.408;18.822;2023-07-08T02:53:49;13.75;99.99
70166;SHT30;57541;47.408;18.822;2023-07-08T02:54:21;13.75;99.99
70166;SHT30;57541;47.408;18.822;2023-07-08T02:54:53;13.75;99.99
70166;SHT30;57541;47.408;18.822;2023-07-08T02:55:24;13.75;99.99
70166;SHT30;57541;47.408;18.822;2023-07-08T02:55:56;13.68;99.99
70166;SHT30;57541;47.408;18.822;2023-07-08T02:56:28;13.66;99.99
70166;SHT30;57541;47.408;18.822;2023-07-08T02:57:00;13.72;99.99
70166;SHT30;57541;47.408;18.822;2023-07-08T02:57:31;13.79;99.99
70166;SHT30;57541;47.408;18.822;2023-07-08T02:58:03;13.83;99.99
70166;SHT30;57541;47.408;18.822;2023-07-08T02:58:35;13.79;99.99
70166;SHT30;57541;47.408;18.822;2023-07-08T02:59:07;13.86;99.99
70166;SHT30;57541;47.408;18.822;2023-07-08T02:59:39;13.89;99.99
70166;SHT30;57541;47.408;18.822;2023-07-08T03:00:12;13.93;99.99
70166;SHT30;57541;47.408;18.822;2023-07-08T03:00:45;13.90;99.99
70166;SHT30;57541;47.408;18.822;2023-07-08T03:01:16;13.93;99.99
70166;SHT30;57541;47.408;18.822;2023-07-08T03:01:49;13.99;99.99
70166;SHT30;57541;47.408;18.822;2023-07-08T03:02:22;14.01;99.99
70166;SHT30;57541;47.408;18.822;2023-07-08T03:02:54;14.05;99.99
70166;SHT30;57541;47.408;18.822;2023-07-08T03:03:27;14.09;99.99
70166;SHT30;57541;47.408;18.822;2023-07-08T03:04:02;13.92;99.99
70166;SHT30;57541;47.408;18.822;2023-07-08T03:04:34;13.86;99.99
70166;SHT30;57541;47.408;18.822;2023-07-08T03:05:11;13.92;99.99
70166;SHT30;57541;47.408;18.822;2023-07-08T03:05:42;13.96;99.99
70166;SHT30;57541;47.408;18.822;2023-07-08T03:06:14;13.95;99.99
70166;SHT30;57541;47.408;18.822;2023-07-08T03:06:46;13.99;99.99
70166;SHT30;57541;47.408;18.822;2023-07-08T03:07:17;13.98;99.99
70166;SHT30;57541;47.408;18.822;2023-07-08T03:07:49;14.01;99.99
70166;SHT30;57541;47.408;18.822;2023-07-08T03:08:21;14.03;99.99
70166;SHT30;57541;47.408;18.822;2023-07-08T03:08:53;14.05;99.99
70166;SHT30;57541;47.408;18.822;2023-07-08T03:09:24;14.06;99.99
70166;SHT30;57541;47.408;18.822;2023-07-08T03:09:56;14.05;99.99
70166;SHT30;57541;47.408;18.822;2023-07-08T03:10:28;14.08;99.99
70166;SHT30;57541;47.408;18.822;2023-07-08T03:11:01;14.05;99.99
70166;SHT30;57541;47.408;18.822;2023-07-08T03:11:34;14.03;99.99
70166;SHT30;57541;47.408;18.822;2023-07-08T03:12:07;13.98;99.99
70166;SHT30;57541;47.408;18.822;2023-07-08T03:12:39;13.93;99.99
70166;SHT30;57541;47.408;18.822;2023-07-08T03:13:10;13.89;99.99
70166;SHT30;57541;47.408;18.822;2023-07-08T03:13:42;13.95;99.99
70166;SHT30;57541;47.408;18.822;2023-07-08T03:14:14;14.02;99.99
70166;SHT30;57541;47.408;18.822;2023-07-08T03:14:45;13.98;99.99
70166;SHT30;57541;47.408;18.822;2023-07-08T03:15:17;14.01;99.99
70166;SHT30;57541;47.408;18.822;2023-07-08T03:15:49;14.05;99.99
70166;SHT30;57541;47.408;18.822;2023-07-08T03:16:21;14.12;99.99
70166;SHT30;57541;47.408;18.822;2023-07-08T03:16:53;14.12;99.99
70166;SHT30;57541;47.408;18.822;2023-07-08T03:17:25;14.12;99.99
70166;SHT30;57541;47.408;18.822;2023-07-08T03:17:56;14.12;99.99
70166;SHT30;57541;47.408;18.822;2023-07-08T03:18:29;14.09;99.99
70166;SHT30;57541;47.408;18.822;2023-07-08T03:19:01;14.10;99.99
70166;SHT30;57541;47.408;18.822;2023-07-08T03:19:33;14.06;99.99
70166;SHT30;57541;47.408;18.822;2023-07-08T03:20:05;14.09;99.99
70166;SHT30;57541;47.408;18.822;2023-07-08T03:20:39;14.10;99.99
70166;SHT30;57541;47.408;18.822;2023-07-08T03:21:13;14.12;99.99
70166;SHT30;57541;47.408;18.822;2023-07-08T03:21:45;14.10;99.99
70166;SHT30;57541;47.408;18.822;2023-07-08T03:22:16;14.12;99.99
70166;SHT30;57541;47.408;18.822;2023-07-08T03:22:48;14.09;99.99
70166;SHT30;57541;47.408;18.822;2023-07-08T03:23:20;14.08;99.99
70166;SHT30;57541;47.408;18.822;2023-07-08T03:23:52;14.02;99.99
70166;SHT30;57541;47.408;18.822;2023-07-08T03:24:23;14.08;99.99
70166;SHT30;57541;47.408;18.822;2023-07-08T03:24:55;14.10;99.92
70166;SHT30;57541;47.408;18.822;2023-07-08T03:25:27;14.12;99.66
70166;SHT30;57541;47.408;18.822;2023-07-08T03:25:58;14.09;99.65
70166;SHT30;57541;47.408;18.822;2023-07-08T03:26:30;14.10;99.75
70166;SHT30;57541;47.408;18.822;2023-07-08T03:27:03;14.02;99.70
70166;SHT30;57541;47.408;18.822;2023-07-08T03:27:36;13.93;99.86
70166;SHT30;57541;47.408;18.822;2023-07-08T03:28:08;13.96;99.99
70166;SHT30;57541;47.408;18.822;2023-07-08T03:28:47;13.93;99.99
70166;SHT30;57541;47.408;18.822;2023-07-08T03:29:20;13.93;99.98
70166;SHT30;57541;47.408;18.822;2023-07-08T03:29:51;13.96;99.91
70166;SHT30;57541;47.408;18.822;2023-07-08T03:30:23;14.02;99.85